sensor_id;sensor_type;location;lat;lon;timestamp;P1;durP1;ratioP1;P2;durP2;ratioP2
14294;SDS011;7231;59.370;18.016;2024-01-07T00:00:04;7.47;;;3.70;;
14294;SDS011;7231;59.370;18.016;2024-01-07T00:02:33;7.33;;;3.93;;
14294;SDS011;7231;59.370;18.016;2024-01-07T00:05:01;7.80;;;3.90;;
14294;SDS011;7231;59.370;18.016;2024-01-07T00:07:29;5.97;;;3.23;;
14294;SDS011;7231;59.370;18.016;2024-01-07T00:09:58;9.50;;;3.80;;
14294;SDS011;7231;59.370;18.016;2024-01-07T00:12:26;9.30;;;3.83;;
14294;SDS011;7231;59.370;18.016;2024-01-07T00:14:55;4.73;;;3.27;;
14294;SDS011;7231;59.370;18.016;2024-01-07T00:17:24;6.03;;;3.23;;
14294;SDS011;7231;59.370;18.016;2024-01-07T00:19:52;5.97;;;3.70;;
14294;SDS011;7231;59.370;18.016;2024-01-07T00:22:20;10.07;;;3.90;;
14294;SDS011;7231;59.370;18.016;2024-01-07T00:24:48;8.57;;;3.10;;
14294;SDS011;7231;59.370;18.016;2024-01-07T00:27:16;7.00;;;3.87;;
14294;SDS011;7231;59.370;18.016;2024-01-07T00:29:44;8.57;;;3.13;;
14294;SDS011;7231;59.370;18.016;2024-01-07T00:32:14;5.97;;;2.97;;
14294;SDS011;7231;59.370;18.016;2024-01-07T00:34:42;6.93;;;3.50;;
14294;SDS011;7231;59.370;18.016;2024-01-07T00:37:10;5.87;;;3.00;;
14294;SDS011;7231;59.370;18.016;2024-01-07T00:39:38;5.57;;;3.13;;
14294;SDS011;7231;59.370;18.016;2024-01-07T00:42:08;4.87;;;2.93;;
14294;SDS011;7231;59.370;18.016;2024-01-07T00:44:37;7.17;;;3.23;;
14294;SDS011;7231;59.370;18.016;2024-01-07T00:47:05;6.03;;;3.50;;
14294;SDS011;7231;59.370;18.016;2024-01-07T00:49:34;6.43;;;3.00;;
14294;SDS011;7231;59.370;18.016;2024-01-07T00:52:03;7.27;;;3.27;;
14294;SDS011;7231;59.370;18.016;2024-01-07T00:54:32;7.27;;;3.43;;
14294;SDS011;7231;59.370;18.016;2024-01-07T00:57:00;6.50;;;3.40;;
14294;SDS011;7231;59.370;18.016;2024-01-07T00:59:28;7.23;;;3.33;;
14294;SDS011;7231;59.370;18.016;2024-01-07T01:01:56;6.73;;;2.90;;
14294;SDS011;7231;59.370;18.016;2024-01-07T01:04:25;5.83;;;3.17;;
14294;SDS011;7231;59.370;18.016;2024-01-07T01:06:54;10.43;;;4.03;;
14294;SDS011;7231;59.370;18.016;2024-01-07T01:09:22;7.10;;;3.57;;
14294;SDS011;7231;59.370;18.016;2024-01-07T01:11:51;7.10;;;3.47;;
14294;SDS011;7231;59.370;18.016;2024-01-07T01:14:19;10.90;;;4.43;;
14294;SDS011;7231;59.370;18.016;2024-01-07T01:16:47;7.67;;;3.70;;
14294;SDS011;7231;59.370;18.016;2024-01-07T01:19:15;8.33;;;3.27;;
14294;SDS011;7231;59.370;18.016;2024-01-07T01:21:43;6.50;;;3.47;;
14294;SDS011;7231;59.370;18.016;2024-01-07T01:24:13;5.20;;;3.07;;
14294;SDS011;7231;59.370;18.016;2024-01-07T01:26:41;4.70;;;3.10;;
14294;SDS011;7231;59.370;18.016;2024-01-07T01:29:09;7.37;;;3.40;;
14294;SDS011;7231;59.370;18.016;2024-01-07T01:31:37;9.27;;;3.60;;
14294;SDS011;7231;59.370;18.016;2024-01-07T01:34:06;5.43;;;3.23;;
14294;SDS011;7231;59.370;18.016;2024-01-07T01:36:34;6.70;;;3.03;;
14294;SDS011;7231;59.370;18.016;2024-01-07T01:39:02;10.13;;;3.67;;
14294;SDS011;7231;59.370;18.016;2024-01-07T01:41:32;7.67;;;3.97;;
14294;SDS011;7231;59.370;18.016;2024-01-07T01:44:00;5.87;;;3.17;;
14294;SDS011;7231;59.370;18.016;2024-01-07T01:46:29;5.77;;;3.17;;
14294;SDS011;7231;59.370;18.016;2024-01-07T01:48:57;9.13;;;3.27;;
14294;SDS011;7231;59.370;18.016;2024-01-07T01:51:26;6.83;;;3.20;;
14294;SDS011;7231;59.370;18.016;2024-01-07T01:53:54;6.23;;;3.40;;
14294;SDS011;7231;59.370;18.016;2024-01-07T01:56:24;7.27;;;3.53;;
14294;SDS011;7231;59.370;18.016;2024-01-07T01:58:56;4.30;;;2.80;;
14294;SDS011;7231;59.370;18.016;2024-01-07T02:01:25;7.87;;;3.30;;
14294;SDS011;7231;59.370;18.016;2024-01-07T02:03:53;6.13;;;3.20;;
14294;SDS011;7231;59.370;18.016;2024-01-07T02:06:21;6.13;;;2.90;;
14294;SDS011;7231;59.370;18.016;2024-01-07T02:08:50;4.97;;;2.80;;
14294;SDS011;7231;59.370;18.016;2024-01-07T02:11:20;4.70;;;3.20;;
14294;SDS011;7231;59.370;18.016;2024-01-07T02:13:49;6.90;;;3.33;;
14294;SDS011;7231;59.370;18.016;2024-01-07T02:16:18;5.53;;;2.80;;
14294;SDS011;7231;59.370;18.016;2024-01-07T02:18:46;6.17;;;3.10;;
14294;SDS011;7231;59.370;18.016;2024-01-07T02:21:15;8.23;;;3.57;;
14294;SDS011;7231;59.370;18.016;2024-01-07T02:23:43;10.77;;;3.43;;
14294;SDS011;7231;59.370;18.016;2024-01-07T02:26:13;6.33;;;3.10;;
14294;SDS011;7231;59.370;18.016;2024-01-07T02:28:41;7.17;;;2.90;;
14294;SDS011;7231;59.370;18.016;2024-01-07T02:31:09;6.23;;;2.77;;
14294;SDS011;7231;59.370;18.016;2024-01-07T02:33:37;7.47;;;3.10;;
14294;SDS011;7231;59.370;18.016;2024-01-07T02:36:06;7.03;;;3.33;;
14294;SDS011;7231;59.370;18.016;2024-01-07T02:38:34;7.10;;;3.27;;
14294;SDS011;7231;59.370;18.016;2024-01-07T02:41:02;5.50;;;3.43;;
14294;SDS011;7231;59.370;18.016;2024-01-07T02:43:32;5.57;;;3.07;;
14294;SDS011;7231;59.370;18.016;2024-01-07T02:46:00;7.00;;;2.97;;
14294;SDS011;7231;59.370;18.016;2024-01-07T02:48:28;6.33;;;2.87;;
14294;SDS011;7231;59.370;18.016;2024-01-07T02:50:57;5.73;;;3.23;;
14294;SDS011;7231;59.370;18.016;2024-01-07T02:53:25;6.57;;;3.43;;
14294;SDS011;7231;59.370;18.016;2024-01-07T02:55:53;6.83;;;3.50;;
14294;SDS011;7231;59.370;18.016;2024-01-07T02:58:21;7.20;;;3.90;;
14294;SDS011;7231;59.370;18.016;2024-01-07T03:00:50;5.57;;;3.20;;
14294;SDS011;7231;59.370;18.016;2024-01-07T03:03:19;6.67;;;3.33;;
14294;SDS011;7231;59.370;18.016;2024-01-07T03:05:47;6.97;;;3.50;;
14294;SDS011;7231;59.370;18.016;2024-01-07T03:08:16;6.57;;;3.67;;
14294;SDS011;7231;59.370;18.016;2024-01-07T03:10:44;8.90;;;4.20;;
14294;SDS011;7231;59.370;18.016;2024-01-07T03:13:12;7.03;;;3.77;;
14294;SDS011;7231;59.370;18.016;2024-01-07T03:15:40;7.97;;;3.73;;
14294;SDS011;7231;59.370;18.016;2024-01-07T03:18:10;7.57;;;3.27;;
14294;SDS011;7231;59.370;18.016;2024-01-07T03:20:38;7.03;;;3.13;;
14294;SDS011;7231;59.370;18.016;2024-01-07T03:23:06;6.13;;;3.17;;
14294;SDS011;7231;59.370;18.016;2024-01-07T03:25:34;6.40;;;3.23;;
14294;SDS011;7231;59.370;18.016;2024-01-07T03:28:02;5.33;;;3.40;;
14294;SDS011;7231;59.370;18.016;2024-01-07T03:30:31;6.07;;;3.30;;
14294;SDS011;7231;59.370;18.016;2024-01-07T03:32:59;8.17;;;3.70;;
14294;SDS011;7231;59.370;18.016;2024-01-07T03:35:29;6.13;;;3.40;;
14294;SDS011;7231;59.370;18.016;2024-01-07T03:37:57;6.20;;;3.10;;
14294;SDS011;7231;59.370;18.016;2024-01-07T03:40:25;5.80;;;3.17;;
14294;SDS011;7231;59.370;18.016;2024-01-07T03:42:53;8.13;;;2.90;;
14294;SDS011;7231;59.370;18.016;2024-01-07T03:45:22;4.77;;;2.80;;
14294;SDS011;7231;59.370;18.016;2024-01-07T03:47:50;5.47;;;3.37;;
14294;SDS011;7231;59.370;18.016;2024-01-07T03:50:19;6.93;;;3.23;;
14294;SDS011;7231;59.370;18.016;2024-01-07T03:52:48;8.93;;;3.07;;
14294;SDS011;7231;59.370;18.016;2024-01-07T03:55:16;6.27;;;3.53;;
14294;SDS011;7231;59.370;18.016;2024-01-07T03:57:44;6.87;;;2.80;;
14294;SDS011;7231;59.370;18.016;2024-01-07T04:00:13;11.47;;;3.83;;
14294;SDS011;7231;59.370;18.016;2024-01-07T04:02:41;5.73;;;3.23;;
14294;SDS011;7231;59.370;18.016;2024-01-07T04:05:10;5.60;;;3.30;;
14294;SDS011;7231;59.370;18.016;2024-01-07T04:07:39;9.20;;;3.70;;
14294;SDS011;7231;59.370;18.016;2024-01-07T04:10:09;5.10;;;3.20;;
14294;SDS011;7231;59.370;18.016;2024-01-07T04:12:37;8.03;;;3.27;;
14294;SDS011;7231;59.370;18.016;2024-01-07T04:15:05;7.57;;;3.57;;
14294;SDS011;7231;59.370;18.016;2024-01-07T04:17:34;6.63;;;3.27;;
14294;SDS011;7231;59.370;18.016;2024-01-07T04:20:02;6.40;;;2.90;;
14294;SDS011;7231;59.370;18.016;2024-01-07T04:22:30;8.67;;;3.00;;
14294;SDS011;7231;59.370;18.016;2024-01-07T04:24:58;7.47;;;2.93;;
14294;SDS011;7231;59.370;18.016;2024-01-07T04:27:28;5.47;;;3.10;;
14294;SDS011;7231;59.370;18.016;2024-01-07T04:29:56;9.80;;;3.70;;
14294;SDS011;7231;59.370;18.016;2024-01-07T04:32:25;5.97;;;3.03;;
14294;SDS011;7231;59.370;18.016;2024-01-07T04:34:53;7.27;;;3.93;;
14294;SDS011;7231;59.370;18.016;2024-01-07T04:37:21;6.43;;;3.30;;
14294;SDS011;7231;59.370;18.016;2024-01-07T04:39:49;5.63;;;2.60;;
14294;SDS011;7231;59.370;18.016;2024-01-07T04:42:17;8.87;;;3.77;;
14294;SDS011;7231;59.370;18.016;2024-01-07T04:44:47;7.03;;;3.47;;
14294;SDS011;7231;59.370;18.016;2024-01-07T04:47:28;7.23;;;3.37;;
14294;SDS011;7231;59.370;18.016;2024-01-07T04:49:57;6.53;;;2.90;;
14294;SDS011;7231;59.370;18.016;2024-01-07T04:52:26;7.83;;;3.40;;
14294;SDS011;7231;59.370;18.016;2024-01-07T04:54:54;5.70;;;2.73;;
14294;SDS011;7231;59.370;18.016;2024-01-07T04:57:23;4.80;;;3.03;;
14294;SDS011;7231;59.370;18.016;2024-01-07T04:59:53;4.13;;;2.40;;
14294;SDS011;7231;59.370;18.016;2024-01-07T05:02:21;7.97;;;3.40;;
14294;SDS011;7231;59.370;18.016;2024-01-07T05:04:49;6.63;;;3.47;;
14294;SDS011;7231;59.370;18.016;2024-01-07T05:07:18;5.63;;;2.83;;
14294;SDS011;7231;59.370;18.016;2024-01-07T05:09:46;5.27;;;2.73;;
14294;SDS011;7231;59.370;18.016;2024-01-07T05:12:14;5.50;;;2.90;;
14294;SDS011;7231;59.370;18.016;2024-01-07T05:14:42;5.30;;;2.63;;
14294;SDS011;7231;59.370;18.016;2024-01-07T05:17:12;4.97;;;2.73;;
14294;SDS011;7231;59.370;18.016;2024-01-07T05:19:40;6.13;;;3.33;;
14294;SDS011;7231;59.370;18.016;2024-01-07T05:22:09;5.53;;;2.60;;
14294;SDS011;7231;59.370;18.016;2024-01-07T05:24:37;7.10;;;2.80;;
14294;SDS011;7231;59.370;18.016;2024-01-07T05:27:06;5.00;;;2.60;;
14294;SDS011;7231;59.370;18.016;2024-01-07T05:29:34;3.70;;;2.47;;
14294;SDS011;7231;59.370;18.016;2024-01-07T05:32:02;5.37;;;2.90;;
14294;SDS011;7231;59.370;18.016;2024-01-07T05:34:32;3.90;;;2.40;;
14294;SDS011;7231;59.370;18.016;2024-01-07T05:37:00;5.93;;;2.70;;
14294;SDS011;7231;59.370;18.016;2024-01-07T05:39:29;5.77;;;2.83;;
14294;SDS011;7231;59.370;18.016;2024-01-07T05:41:57;7.73;;;3.47;;
14294;SDS011;7231;59.370;18.016;2024-01-07T05:44:25;5.07;;;2.63;;
14294;SDS011;7231;59.370;18.016;2024-01-07T05:46:55;8.20;;;3.20;;
14294;SDS011;7231;59.370;18.016;2024-01-07T05:49:24;6.50;;;2.80;;
14294;SDS011;7231;59.370;18.016;2024-01-07T05:51:53;5.63;;;2.73;;
14294;SDS011;7231;59.370;18.016;2024-01-07T05:54:21;6.77;;;2.60;;
14294;SDS011;7231;59.370;18.016;2024-01-07T05:56:50;6.63;;;3.60;;
14294;SDS011;7231;59.370;18.016;2024-01-07T05:59:19;5.50;;;2.90;;
14294;SDS011;7231;59.370;18.016;2024-01-07T06:01:47;6.17;;;2.90;;
14294;SDS011;7231;59.370;18.016;2024-01-07T06:04:15;5.73;;;2.67;;
14294;SDS011;7231;59.370;18.016;2024-01-07T06:06:43;7.13;;;2.87;;
14294;SDS011;7231;59.370;18.016;2024-01-07T06:09:14;7.63;;;3.60;;
14294;SDS011;7231;59.370;18.016;2024-01-07T06:11:42;6.47;;;3.10;;
14294;SDS011;7231;59.370;18.016;2024-01-07T06:14:10;5.40;;;3.13;;
14294;SDS011;7231;59.370;18.016;2024-01-07T06:16:39;7.00;;;2.97;;
14294;SDS011;7231;59.370;18.016;2024-01-07T06:19:07;9.37;;;3.57;;
14294;SDS011;7231;59.370;18.016;2024-01-07T06:21:35;5.80;;;2.70;;
14294;SDS011;7231;59.370;18.016;2024-01-07T06:24:03;5.63;;;2.60;;
14294;SDS011;7231;59.370;18.016;2024-01-07T06:26:33;5.87;;;3.00;;
14294;SDS011;7231;59.370;18.016;2024-01-07T06:29:02;5.73;;;2.70;;
14294;SDS011;7231;59.370;18.016;2024-01-07T06:31:30;6.47;;;2.83;;
14294;SDS011;7231;59.370;18.016;2024-01-07T06:33:59;5.87;;;3.07;;
14294;SDS011;7231;59.370;18.016;2024-01-07T06:36:28;5.37;;;2.43;;
14294;SDS011;7231;59.370;18.016;2024-01-07T06:38:56;5.90;;;2.90;;
14294;SDS011;7231;59.370;18.016;2024-01-07T06:41:24;4.97;;;3.00;;
14294;SDS011;7231;59.370;18.016;2024-01-07T06:43:53;5.27;;;2.50;;
14294;SDS011;7231;59.370;18.016;2024-01-07T06:46:23;5.80;;;2.83;;
14294;SDS011;7231;59.370;18.016;2024-01-07T06:48:52;5.97;;;2.77;;
14294;SDS011;7231;59.370;18.016;2024-01-07T06:51:20;7.40;;;3.43;;
14294;SDS011;7231;59.370;18.016;2024-01-07T06:53:48;4.93;;;2.67;;
14294;SDS011;7231;59.370;18.016;2024-01-07T06:56:16;4.33;;;2.60;;
14294;SDS011;7231;59.370;18.016;2024-01-07T06:58:45;4.20;;;2.83;;
14294;SDS011;7231;59.370;18.016;2024-01-07T07:01:14;5.17;;;2.60;;
14294;SDS011;7231;59.370;18.016;2024-01-07T07:03:47;5.40;;;2.70;;
14294;SDS011;7231;59.370;18.016;2024-01-07T07:06:15;4.47;;;2.60;;
14294;SDS011;7231;59.370;18.016;2024-01-07T07:08:44;3.93;;;2.40;;
14294;SDS011;7231;59.370;18.016;2024-01-07T07:11:12;7.07;;;2.77;;
14294;SDS011;7231;59.370;18.016;2024-01-07T07:13:40;5.30;;;2.60;;
14294;SDS011;7231;59.370;18.016;2024-01-07T07:16:08;9.03;;;2.83;;
14294;SDS011;7231;59.370;18.016;2024-01-07T07:18:38;4.43;;;2.30;;
14294;SDS011;7231;59.370;18.016;2024-01-07T07:21:06;4.73;;;2.40;;
14294;SDS011;7231;59.370;18.016;2024-01-07T07:23:34;4.23;;;2.30;;
14294;SDS011;7231;59.370;18.016;2024-01-07T07:26:03;4.80;;;2.90;;
14294;SDS011;7231;59.370;18.016;2024-01-07T07:28:31;5.47;;;2.70;;
14294;SDS011;7231;59.370;18.016;2024-01-07T07:30:59;4.53;;;2.50;;
14294;SDS011;7231;59.370;18.016;2024-01-07T07:33:27;5.27;;;2.40;;
14294;SDS011;7231;59.370;18.016;2024-01-07T07:35:57;5.07;;;2.40;;
14294;SDS011;7231;59.370;18.016;2024-01-07T07:38:25;5.03;;;2.47;;
14294;SDS011;7231;59.370;18.016;2024-01-07T07:40:53;3.83;;;2.40;;
14294;SDS011;7231;59.370;18.016;2024-01-07T07:43:21;4.50;;;2.40;;
14294;SDS011;7231;59.370;18.016;2024-01-07T07:45:49;4.93;;;2.27;;
14294;SDS011;7231;59.370;18.016;2024-01-07T07:48:18;3.23;;;2.17;;
14294;SDS011;7231;59.370;18.016;2024-01-07T07:50:46;6.03;;;2.33;;
14294;SDS011;7231;59.370;18.016;2024-01-07T07:53:17;4.53;;;2.00;;
14294;SDS011;7231;59.370;18.016;2024-01-07T07:55:45;4.23;;;2.23;;
14294;SDS011;7231;59.370;18.016;2024-01-07T07:58:13;5.57;;;2.80;;
14294;SDS011;7231;59.370;18.016;2024-01-07T08:00:41;5.77;;;2.60;;
14294;SDS011;7231;59.370;18.016;2024-01-07T08:03:11;6.13;;;2.53;;
14294;SDS011;7231;59.370;18.016;2024-01-07T08:05:39;5.13;;;2.20;;
14294;SDS011;7231;59.370;18.016;2024-01-07T08:08:08;3.57;;;2.27;;
14294;SDS011;7231;59.370;18.016;2024-01-07T08:10:38;3.83;;;2.40;;
14294;SDS011;7231;59.370;18.016;2024-01-07T08:13:06;4.27;;;2.10;;
14294;SDS011;7231;59.370;18.016;2024-01-07T08:15:35;3.07;;;1.93;;
14294;SDS011;7231;59.370;18.016;2024-01-07T08:18:04;4.83;;;2.40;;
14294;SDS011;7231;59.370;18.016;2024-01-07T08:20:33;3.13;;;2.07;;
14294;SDS011;7231;59.370;18.016;2024-01-07T08:23:01;4.30;;;2.30;;
14294;SDS011;7231;59.370;18.016;2024-01-07T08:25:29;3.63;;;2.13;;
14294;SDS011;7231;59.370;18.016;2024-01-07T08:28:00;2.20;;;1.80;;
14294;SDS011;7231;59.370;18.016;2024-01-07T08:30:28;4.80;;;2.30;;
14294;SDS011;7231;59.370;18.016;2024-01-07T08:32:56;5.23;;;2.70;;
14294;SDS011;7231;59.370;18.016;2024-01-07T08:35:25;3.67;;;1.90;;
14294;SDS011;7231;59.370;18.016;2024-01-07T08:37:53;4.67;;;2.27;;
14294;SDS011;7231;59.370;18.016;2024-01-07T08:40:21;5.40;;;2.87;;
14294;SDS011;7231;59.370;18.016;2024-01-07T08:42:49;3.90;;;2.10;;
14294;SDS011;7231;59.370;18.016;2024-01-07T08:45:19;6.43;;;2.90;;
14294;SDS011;7231;59.370;18.016;2024-01-07T08:47:47;6.80;;;2.90;;
14294;SDS011;7231;59.370;18.016;2024-01-07T08:50:15;4.53;;;2.80;;
14294;SDS011;7231;59.370;18.016;2024-01-07T08:52:44;5.13;;;2.90;;
14294;SDS011;7231;59.370;18.016;2024-01-07T08:55:13;6.87;;;3.10;;
14294;SDS011;7231;59.370;18.016;2024-01-07T08:57:42;6.27;;;3.40;;
14294;SDS011;7231;59.370;18.016;2024-01-07T09:00:12;7.73;;;3.77;;
14294;SDS011;7231;59.370;18.016;2024-01-07T09:02:42;7.00;;;3.63;;
14294;SDS011;7231;59.370;18.016;2024-01-07T09:05:10;7.47;;;3.83;;
14294;SDS011;7231;59.370;18.016;2024-01-07T09:07:40;7.47;;;2.90;;
14294;SDS011;7231;59.370;18.016;2024-01-07T09:10:08;7.20;;;2.57;;
14294;SDS011;7231;59.370;18.016;2024-01-07T09:12:38;7.37;;;3.37;;
14294;SDS011;7231;59.370;18.016;2024-01-07T09:15:07;4.17;;;2.80;;
14294;SDS011;7231;59.370;18.016;2024-01-07T09:17:37;4.57;;;2.87;;
14294;SDS011;7231;59.370;18.016;2024-01-07T09:20:08;7.70;;;3.80;;
14294;SDS011;7231;59.370;18.016;2024-01-07T09:22:37;6.50;;;3.67;;
14294;SDS011;7231;59.370;18.016;2024-01-07T09:25:07;6.40;;;2.80;;
14294;SDS011;7231;59.370;18.016;2024-01-07T09:27:36;5.47;;;3.03;;
14294;SDS011;7231;59.370;18.016;2024-01-07T09:30:04;6.77;;;3.10;;
14294;SDS011;7231;59.370;18.016;2024-01-07T09:32:33;5.37;;;2.70;;
14294;SDS011;7231;59.370;18.016;2024-01-07T09:35:04;4.47;;;2.53;;
14294;SDS011;7231;59.370;18.016;2024-01-07T09:37:34;6.70;;;3.50;;
14294;SDS011;7231;59.370;18.016;2024-01-07T09:40:03;5.97;;;2.93;;
14294;SDS011;7231;59.370;18.016;2024-01-07T09:42:33;6.80;;;2.67;;
14294;SDS011;7231;59.370;18.016;2024-01-07T09:45:01;5.07;;;2.83;;
14294;SDS011;7231;59.370;18.016;2024-01-07T09:47:31;5.30;;;3.20;;
14294;SDS011;7231;59.370;18.016;2024-01-07T09:50:00;8.13;;;3.93;;
14294;SDS011;7231;59.370;18.016;2024-01-07T09:52:28;8.83;;;4.80;;
14294;SDS011;7231;59.370;18.016;2024-01-07T09:55:00;9.37;;;4.27;;
14294;SDS011;7231;59.370;18.016;2024-01-07T09:57:30;8.50;;;4.50;;
14294;SDS011;7231;59.370;18.016;2024-01-07T09:59:59;7.53;;;4.43;;
14294;SDS011;7231;59.370;18.016;2024-01-07T10:02:28;10.90;;;4.87;;
14294;SDS011;7231;59.370;18.016;2024-01-07T10:04:56;9.90;;;5.07;;
14294;SDS011;7231;59.370;18.016;2024-01-07T10:07:24;10.80;;;4.63;;
14294;SDS011;7231;59.370;18.016;2024-01-07T10:09:52;9.27;;;4.63;;
14294;SDS011;7231;59.370;18.016;2024-01-07T10:12:24;8.77;;;4.33;;
14294;SDS011;7231;59.370;18.016;2024-01-07T10:14:53;11.07;;;4.70;;
14294;SDS011;7231;59.370;18.016;2024-01-07T10:17:21;9.53;;;4.23;;
14294;SDS011;7231;59.370;18.016;2024-01-07T10:19:54;9.70;;;4.57;;
14294;SDS011;7231;59.370;18.016;2024-01-07T10:22:26;7.63;;;3.83;;
14294;SDS011;7231;59.370;18.016;2024-01-07T10:24:54;7.63;;;4.03;;
14294;SDS011;7231;59.370;18.016;2024-01-07T10:27:24;8.17;;;3.80;;
14294;SDS011;7231;59.370;18.016;2024-01-07T10:29:52;6.33;;;3.80;;
14294;SDS011;7231;59.370;18.016;2024-01-07T10:32:21;9.57;;;4.30;;
14294;SDS011;7231;59.370;18.016;2024-01-07T10:34:49;7.40;;;4.20;;
14294;SDS011;7231;59.370;18.016;2024-01-07T10:37:25;7.10;;;4.30;;
14294;SDS011;7231;59.370;18.016;2024-01-07T10:39:54;6.30;;;3.80;;
14294;SDS011;7231;59.370;18.016;2024-01-07T10:42:29;8.43;;;4.37;;
14294;SDS011;7231;59.370;18.016;2024-01-07T10:44:58;8.53;;;4.27;;
14294;SDS011;7231;59.370;18.016;2024-01-07T10:47:27;8.63;;;3.97;;
14294;SDS011;7231;59.370;18.016;2024-01-07T10:49:58;8.47;;;4.10;;
14294;SDS011;7231;59.370;18.016;2024-01-07T10:52:28;10.63;;;4.63;;
14294;SDS011;7231;59.370;18.016;2024-01-07T10:54:56;7.37;;;3.87;;
14294;SDS011;7231;59.370;18.016;2024-01-07T10:57:32;7.07;;;4.00;;
14294;SDS011;7231;59.370;18.016;2024-01-07T11:00:03;7.63;;;4.03;;
14294;SDS011;7231;59.370;18.016;2024-01-07T11:02:34;9.57;;;4.83;;
14294;SDS011;7231;59.370;18.016;2024-01-07T11:05:18;7.57;;;4.20;;
14294;SDS011;7231;59.370;18.016;2024-01-07T11:07:53;8.77;;;4.40;;
14294;SDS011;7231;59.370;18.016;2024-01-07T11:10:29;9.10;;;4.20;;
14294;SDS011;7231;59.370;18.016;2024-01-07T11:16:02;10.07;;;4.40;;
14294;SDS011;7231;59.370;18.016;2024-01-07T11:18:31;9.40;;;4.47;;
14294;SDS011;7231;59.370;18.016;2024-01-07T11:21:02;9.07;;;4.73;;
14294;SDS011;7231;59.370;18.016;2024-01-07T11:23:30;6.60;;;3.67;;
14294;SDS011;7231;59.370;18.016;2024-01-07T11:26:00;8.70;;;3.67;;
14294;SDS011;7231;59.370;18.016;2024-01-07T11:28:46;9.20;;;4.67;;
14294;SDS011;7231;59.370;18.016;2024-01-07T11:31:17;10.07;;;4.37;;
14294;SDS011;7231;59.370;18.016;2024-01-07T11:33:47;8.90;;;4.10;;
14294;SDS011;7231;59.370;18.016;2024-01-07T11:36:17;9.63;;;4.80;;
14294;SDS011;7231;59.370;18.016;2024-01-07T11:38:47;8.30;;;4.47;;
14294;SDS011;7231;59.370;18.016;2024-01-07T11:41:20;7.63;;;4.20;;
14294;SDS011;7231;59.370;18.016;2024-01-07T11:43:54;6.63;;;4.13;;
14294;SDS011;7231;59.370;18.016;2024-01-07T11:46:31;9.07;;;4.67;;
14294;SDS011;7231;59.370;18.016;2024-01-07T11:49:00;9.17;;;4.80;;
14294;SDS011;7231;59.370;18.016;2024-01-07T11:51:29;10.37;;;4.50;;
14294;SDS011;7231;59.370;18.016;2024-01-07T11:53:59;9.97;;;4.47;;
14294;SDS011;7231;59.370;18.016;2024-01-07T11:56:28;11.00;;;5.10;;
14294;SDS011;7231;59.370;18.016;2024-01-07T11:58:58;10.30;;;5.10;;
14294;SDS011;7231;59.370;18.016;2024-01-07T12:01:26;6.80;;;4.23;;
14294;SDS011;7231;59.370;18.016;2024-01-07T12:03:54;10.50;;;4.93;;
14294;SDS011;7231;59.370;18.016;2024-01-07T12:06:23;10.53;;;5.37;;
14294;SDS011;7231;59.370;18.016;2024-01-07T12:08:51;10.93;;;5.23;;
14294;SDS011;7231;59.370;18.016;2024-01-07T12:11:20;11.67;;;5.23;;
14294;SDS011;7231;59.370;18.016;2024-01-07T12:13:48;9.77;;;5.10;;
14294;SDS011;7231;59.370;18.016;2024-01-07T12:16:18;10.37;;;5.47;;
14294;SDS011;7231;59.370;18.016;2024-01-07T12:18:47;9.17;;;5.23;;
14294;SDS011;7231;59.370;18.016;2024-01-07T12:21:18;14.37;;;6.40;;
14294;SDS011;7231;59.370;18.016;2024-01-07T12:23:47;14.10;;;5.90;;
14294;SDS011;7231;59.370;18.016;2024-01-07T12:26:17;11.10;;;4.70;;
14294;SDS011;7231;59.370;18.016;2024-01-07T12:28:51;11.40;;;5.13;;
14294;SDS011;7231;59.370;18.016;2024-01-07T12:31:21;11.57;;;5.43;;
14294;SDS011;7231;59.370;18.016;2024-01-07T12:33:51;11.60;;;5.83;;
14294;SDS011;7231;59.370;18.016;2024-01-07T12:36:20;9.23;;;5.10;;
14294;SDS011;7231;59.370;18.016;2024-01-07T12:38:49;9.03;;;4.90;;
14294;SDS011;7231;59.370;18.016;2024-01-07T12:41:17;8.47;;;4.80;;
14294;SDS011;7231;59.370;18.016;2024-01-07T12:43:46;10.90;;;5.03;;
14294;SDS011;7231;59.370;18.016;2024-01-07T12:46:14;10.47;;;5.90;;
14294;SDS011;7231;59.370;18.016;2024-01-07T12:48:43;9.43;;;5.07;;
14294;SDS011;7231;59.370;18.016;2024-01-07T12:51:12;9.00;;;5.03;;
14294;SDS011;7231;59.370;18.016;2024-01-07T12:53:40;9.80;;;4.90;;
14294;SDS011;7231;59.370;18.016;2024-01-07T12:56:08;11.33;;;5.50;;
14294;SDS011;7231;59.370;18.016;2024-01-07T12:58:36;12.33;;;5.43;;
14294;SDS011;7231;59.370;18.016;2024-01-07T13:01:03;10.83;;;5.70;;
14294;SDS011;7231;59.370;18.016;2024-01-07T13:03:32;10.90;;;5.43;;
14294;SDS011;7231;59.370;18.016;2024-01-07T13:06:02;11.73;;;5.90;;
14294;SDS011;7231;59.370;18.016;2024-01-07T13:08:31;11.20;;;6.17;;
14294;SDS011;7231;59.370;18.016;2024-01-07T13:10:59;10.83;;;5.60;;
14294;SDS011;7231;59.370;18.016;2024-01-07T13:13:28;11.43;;;5.50;;
14294;SDS011;7231;59.370;18.016;2024-01-07T13:15:56;9.57;;;4.90;;
14294;SDS011;7231;59.370;18.016;2024-01-07T13:18:28;11.13;;;5.40;;
14294;SDS011;7231;59.370;18.016;2024-01-07T13:20:56;8.53;;;4.40;;
14294;SDS011;7231;59.370;18.016;2024-01-07T13:23:26;9.33;;;5.70;;
14294;SDS011;7231;59.370;18.016;2024-01-07T13:25:54;10.27;;;5.17;;
14294;SDS011;7231;59.370;18.016;2024-01-07T13:28:23;8.40;;;4.07;;
14294;SDS011;7231;59.370;18.016;2024-01-07T13:30:51;12.53;;;6.33;;
14294;SDS011;7231;59.370;18.016;2024-01-07T13:33:20;11.87;;;5.63;;
14294;SDS011;7231;59.370;18.016;2024-01-07T13:35:48;12.57;;;5.97;;
14294;SDS011;7231;59.370;18.016;2024-01-07T13:38:16;11.10;;;6.33;;
14294;SDS011;7231;59.370;18.016;2024-01-07T13:40:46;9.90;;;5.70;;
14294;SDS011;7231;59.370;18.016;2024-01-07T13:43:14;9.53;;;5.13;;
14294;SDS011;7231;59.370;18.016;2024-01-07T13:45:42;10.53;;;5.70;;
14294;SDS011;7231;59.370;18.016;2024-01-07T13:48:10;8.97;;;5.67;;
14294;SDS011;7231;59.370;18.016;2024-01-07T13:50:39;9.97;;;5.27;;
14294;SDS011;7231;59.370;18.016;2024-01-07T13:53:07;11.40;;;6.07;;
14294;SDS011;7231;59.370;18.016;2024-01-07T13:55:35;11.73;;;6.50;;
14294;SDS011;7231;59.370;18.016;2024-01-07T13:58:04;12.07;;;5.80;;
14294;SDS011;7231;59.370;18.016;2024-01-07T14:00:33;12.10;;;6.40;;
14294;SDS011;7231;59.370;18.016;2024-01-07T14:03:01;12.90;;;6.77;;
14294;SDS011;7231;59.370;18.016;2024-01-07T14:05:30;15.37;;;7.00;;
14294;SDS011;7231;59.370;18.016;2024-01-07T14:07:58;13.20;;;6.03;;
14294;SDS011;7231;59.370;18.016;2024-01-07T14:10:26;12.47;;;6.43;;
14294;SDS011;7231;59.370;18.016;2024-01-07T14:12:55;12.57;;;6.13;;
14294;SDS011;7231;59.370;18.016;2024-01-07T14:15:25;10.67;;;5.70;;
14294;SDS011;7231;59.370;18.016;2024-01-07T14:17:53;11.17;;;6.40;;
14294;SDS011;7231;59.370;18.016;2024-01-07T14:20:21;12.63;;;6.40;;
14294;SDS011;7231;59.370;18.016;2024-01-07T14:22:49;13.23;;;6.20;;
14294;SDS011;7231;59.370;18.016;2024-01-07T14:25:18;13.13;;;6.70;;
14294;SDS011;7231;59.370;18.016;2024-01-07T14:27:46;13.00;;;6.70;;
14294;SDS011;7231;59.370;18.016;2024-01-07T14:30:15;13.13;;;7.10;;
14294;SDS011;7231;59.370;18.016;2024-01-07T14:32:44;15.43;;;7.30;;
14294;SDS011;7231;59.370;18.016;2024-01-07T14:35:13;14.53;;;7.00;;
14294;SDS011;7231;59.370;18.016;2024-01-07T14:37:41;14.80;;;7.33;;
14294;SDS011;7231;59.370;18.016;2024-01-07T14:40:09;15.30;;;7.40;;
14294;SDS011;7231;59.370;18.016;2024-01-07T14:42:38;14.00;;;6.77;;
14294;SDS011;7231;59.370;18.016;2024-01-07T14:45:06;14.77;;;6.93;;
14294;SDS011;7231;59.370;18.016;2024-01-07T14:47:35;13.03;;;6.90;;
14294;SDS011;7231;59.370;18.016;2024-01-07T14:50:05;13.17;;;6.47;;
14294;SDS011;7231;59.370;18.016;2024-01-07T14:52:35;13.30;;;6.87;;
14294;SDS011;7231;59.370;18.016;2024-01-07T14:55:03;11.07;;;6.30;;
14294;SDS011;7231;59.370;18.016;2024-01-07T14:57:32;15.60;;;8.00;;